sensor_id;sensor_type;location;lat;lon;timestamp;pressure;altitude;pressure_sealevel;temperature;humidity
51297;BME280;37380;45.186;9.792;2024-01-10T00:00:47;102276.19;;;3.49;70.16
51297;BME280;37380;45.186;9.792;2024-01-10T00:03:14;102283.78;;;3.68;70.10
51297;BME280;37380;45.186;9.792;2024-01-10T00:05:41;102278.84;;;3.56;69.89
51297;BME280;37380;45.186;9.792;2024-01-10T00:08:08;102267.56;;;3.47;70.48
51297;BME280;37380;45.186;9.792;2024-01-10T00:10:35;102265.25;;;3.46;70.44
51297;BME280;37380;45.186;9.792;2024-01-10T00:13:02;102266.53;;;3.64;69.72
51297;BME280;37380;45.186;9.792;2024-01-10T00:15:29;102272.16;;;3.57;69.50
51297;BME280;37380;45.186;9.792;2024-01-10T00:17:56;102268.47;;;3.67;68.87
51297;BME280;37380;45.186;9.792;2024-01-10T00:20:23;102269.31;;;3.61;69.89
51297;BME280;37380;45.186;9.792;2024-01-10T00:22:51;102271.13;;;3.48;69.56
51297;BME280;37380;45.186;9.792;2024-01-10T00:25:18;102265.84;;;3.57;68.50
51297;BME280;37380;45.186;9.792;2024-01-10T00:27:45;102275.34;;;3.56;68.67
51297;BME280;37380;45.186;9.792;2024-01-10T00:30:12;102272.94;;;3.58;68.04
51297;BME280;37380;45.186;9.792;2024-01-10T00:32:39;102266.78;;;3.47;68.50
51297;BME280;37380;45.186;9.792;2024-01-10T00:35:07;102282.56;;;3.46;68.81
51297;BME280;37380;45.186;9.792;2024-01-10T00:37:34;102282.66;;;3.39;68.73
51297;BME280;37380;45.186;9.792;2024-01-10T00:40:01;102288.66;;;3.30;69.21
51297;BME280;37380;45.186;9.792;2024-01-10T00:42:28;102283.13;;;3.04;70.23
51297;BME280;37380;45.186;9.792;2024-01-10T00:44:56;102278.16;;;2.92;70.76
51297;BME280;37380;45.186;9.792;2024-01-10T00:47:23;102279.41;;;2.87;71.16
51297;BME280;37380;45.186;9.792;2024-01-10T00:49:50;102274.66;;;2.91;70.19
51297;BME280;37380;45.186;9.792;2024-01-10T00:52:17;102281.78;;;2.85;71.33
51297;BME280;37380;45.186;9.792;2024-01-10T00:54:44;102277.78;;;2.93;70.68
51297;BME280;37380;45.186;9.792;2024-01-10T00:57:12;102285.34;;;2.82;70.51
51297;BME280;37380;45.186;9.792;2024-01-10T00:59:41;102291.19;;;2.88;70.49
51297;BME280;37380;45.186;9.792;2024-01-10T01:02:08;102296.31;;;2.86;69.93
51297;BME280;37380;45.186;9.792;2024-01-10T01:04:35;102292.22;;;2.67;69.90
51297;BME280;37380;45.186;9.792;2024-01-10T01:07:02;102297.09;;;2.52;70.18
51297;BME280;37380;45.186;9.792;2024-01-10T01:09:30;102294.00;;;2.47;70.14
51297;BME280;37380;45.186;9.792;2024-01-10T01:11:57;102301.16;;;2.37;71.09
51297;BME280;37380;45.186;9.792;2024-01-10T01:14:24;102303.56;;;2.35;70.74
51297;BME280;37380;45.186;9.792;2024-01-10T01:16:52;102311.88;;;2.28;71.77
51297;BME280;37380;45.186;9.792;2024-01-10T01:19:19;102316.22;;;2.26;71.91
51297;BME280;37380;45.186;9.792;2024-01-10T01:21:46;102308.34;;;2.28;72.47
51297;BME280;37380;45.186;9.792;2024-01-10T01:24:13;102314.69;;;2.21;71.94
51297;BME280;37380;45.186;9.792;2024-01-10T01:26:40;102323.72;;;2.18;71.98
51297;BME280;37380;45.186;9.792;2024-01-10T01:29:07;102321.84;;;2.12;72.15
51297;BME280;37380;45.186;9.792;2024-01-10T01:31:35;102322.63;;;2.12;72.07
51297;BME280;37380;45.186;9.792;2024-01-10T01:34:02;102319.38;;;2.21;72.78
51297;BME280;37380;45.186;9.792;2024-01-10T01:36:29;102321.03;;;2.11;72.06
51297;BME280;37380;45.186;9.792;2024-01-10T01:38:56;102320.44;;;1.89;73.28
51297;BME280;37380;45.186;9.792;2024-01-10T01:41:23;102323.50;;;1.98;72.90
51297;BME280;37380;45.186;9.792;2024-01-10T01:43:50;102320.47;;;1.86;72.59
51297;BME280;37380;45.186;9.792;2024-01-10T01:46:18;102323.50;;;1.98;72.67
51297;BME280;37380;45.186;9.792;2024-01-10T01:48:45;102327.47;;;1.94;72.74
51297;BME280;37380;45.186;9.792;2024-01-10T01:51:14;102323.59;;;1.88;73.79
51297;BME280;37380;45.186;9.792;2024-01-10T01:53:42;102320.47;;;1.82;75.00
51297;BME280;37380;45.186;9.792;2024-01-10T01:56:12;102326.13;;;1.65;74.94
51297;BME280;37380;45.186;9.792;2024-01-10T01:58:42;102325.34;;;1.61;75.48
51297;BME280;37380;45.186;9.792;2024-01-10T02:01:11;102317.41;;;1.73;76.50
51297;BME280;37380;45.186;9.792;2024-01-10T02:03:39;102318.53;;;1.79;76.10
51297;BME280;37380;45.186;9.792;2024-01-10T02:06:06;102326.81;;;1.72;75.70
51297;BME280;37380;45.186;9.792;2024-01-10T02:08:34;102321.78;;;1.64;75.71
51297;BME280;37380;45.186;9.792;2024-01-10T02:11:02;102322.91;;;1.70;74.49
51297;BME280;37380;45.186;9.792;2024-01-10T02:13:31;102319.47;;;1.59;77.14
51297;BME280;37380;45.186;9.792;2024-01-10T02:15:59;102310.50;;;1.51;77.30
51297;BME280;37380;45.186;9.792;2024-01-10T02:18:27;102310.44;;;1.62;77.47
51297;BME280;37380;45.186;9.792;2024-01-10T02:20:54;102317.50;;;1.59;76.00
51297;BME280;37380;45.186;9.792;2024-01-10T02:23:22;102311.56;;;1.71;75.60
51297;BME280;37380;45.186;9.792;2024-01-10T02:25:50;102313.38;;;1.88;75.45
51297;BME280;37380;45.186;9.792;2024-01-10T02:28:17;102313.38;;;1.88;75.25
51297;BME280;37380;45.186;9.792;2024-01-10T02:30:44;102306.31;;;1.87;74.71
51297;BME280;37380;45.186;9.792;2024-01-10T02:33:11;102312.13;;;1.96;74.18
51297;BME280;37380;45.186;9.792;2024-01-10T02:35:38;102308.16;;;2.04;74.42
51297;BME280;37380;45.186;9.792;2024-01-10T02:38:05;102306.22;;;2.01;75.23
51297;BME280;37380;45.186;9.792;2024-01-10T02:40:32;102303.88;;;2.00;76.43
51297;BME280;37380;45.186;9.792;2024-01-10T02:43:00;102304.97;;;2.10;75.54
51297;BME280;37380;45.186;9.792;2024-01-10T02:45:27;102297.16;;;2.04;74.35
51297;BME280;37380;45.186;9.792;2024-01-10T02:47:53;102294.00;;;2.06;73.27
51297;BME280;37380;45.186;9.792;2024-01-10T02:50:21;102304.53;;;2.15;72.87
51297;BME280;37380;45.186;9.792;2024-01-10T02:52:47;102306.50;;;2.14;73.98
51297;BME280;37380;45.186;9.792;2024-01-10T02:55:14;102298.63;;;2.16;72.87
51297;BME280;37380;45.186;9.792;2024-01-10T02:57:41;102298.53;;;2.27;71.73
51297;BME280;37380;45.186;9.792;2024-01-10T03:00:09;102296.09;;;2.36;71.11
51297;BME280;37380;45.186;9.792;2024-01-10T03:02:36;102291.03;;;2.31;72.25
51297;BME280;37380;45.186;9.792;2024-01-10T03:05:03;102294.75;;;2.51;73.16
51297;BME280;37380;45.186;9.792;2024-01-10T03:07:31;102289.56;;;2.60;71.04
51297;BME280;37380;45.186;9.792;2024-01-10T03:09:57;102286.56;;;2.44;73.68
51297;BME280;37380;45.186;9.792;2024-01-10T03:12:24;102290.59;;;2.36;75.34
51297;BME280;37380;45.186;9.792;2024-01-10T03:14:52;102289.38;;;2.37;75.19
51297;BME280;37380;45.186;9.792;2024-01-10T03:17:19;102284.44;;;2.62;73.98
51297;BME280;37380;45.186;9.792;2024-01-10T03:19:46;102286.47;;;2.88;71.36
51297;BME280;37380;45.186;9.792;2024-01-10T03:22:13;102272.19;;;3.00;68.71
51297;BME280;37380;45.186;9.792;2024-01-10T03:24:41;102276.78;;;2.77;68.67
51297;BME280;37380;45.186;9.792;2024-01-10T03:27:08;102270.31;;;2.60;70.16
51297;BME280;37380;45.186;9.792;2024-01-10T03:29:35;102272.78;;;2.47;71.28
51297;BME280;37380;45.186;9.792;2024-01-10T03:32:02;102270.78;;;2.51;71.93
51297;BME280;37380;45.186;9.792;2024-01-10T03:34:29;102262.94;;;2.50;72.19
51297;BME280;37380;45.186;9.792;2024-01-10T03:36:56;102268.81;;;2.52;72.30
51297;BME280;37380;45.186;9.792;2024-01-10T03:39:24;102266.50;;;2.50;71.89
51297;BME280;37380;45.186;9.792;2024-01-10T03:41:51;102274.84;;;2.40;71.61
51297;BME280;37380;45.186;9.792;2024-01-10T03:44:18;102278.91;;;2.25;72.22
51297;BME280;37380;45.186;9.792;2024-01-10T03:46:45;102274.63;;;2.20;72.30
51297;BME280;37380;45.186;9.792;2024-01-10T03:49:12;102274.63;;;2.20;72.42
51297;BME280;37380;45.186;9.792;2024-01-10T03:51:39;102277.72;;;2.26;72.65
51297;BME280;37380;45.186;9.792;2024-01-10T03:54:07;102280.69;;;2.42;72.88
51297;BME280;37380;45.186;9.792;2024-01-10T03:56:34;102278.94;;;2.62;72.23
51297;BME280;37380;45.186;9.792;2024-01-10T03:59:01;102285.78;;;2.81;70.54
51297;BME280;37380;45.186;9.792;2024-01-10T04:01:29;102279.00;;;2.89;70.25
51297;BME280;37380;45.186;9.792;2024-01-10T04:03:56;102277.09;;;2.82;69.83
51297;BME280;37380;45.186;9.792;2024-01-10T04:06:22;102278.84;;;2.69;70.30
51297;BME280;37380;45.186;9.792;2024-01-10T04:08:50;102269.88;;;2.65;70.33
51297;BME280;37380;45.186;9.792;2024-01-10T04:11:16;102277.56;;;2.77;70.29
51297;BME280;37380;45.186;9.792;2024-01-10T04:13:44;102277.09;;;2.82;69.22
51297;BME280;37380;45.186;9.792;2024-01-10T04:16:12;102271.94;;;2.54;70.24
51297;BME280;37380;45.186;9.792;2024-01-10T04:18:39;102273.44;;;2.62;70.42
51297;BME280;37380;45.186;9.792;2024-01-10T04:21:07;102281.31;;;2.60;70.13
51297;BME280;37380;45.186;9.792;2024-01-10T04:23:35;102284.50;;;2.55;70.99
51297;BME280;37380;45.186;9.792;2024-01-10T04:26:02;102297.03;;;2.56;70.60
51297;BME280;37380;45.186;9.792;2024-01-10T04:28:30;102295.66;;;2.41;71.10
51297;BME280;37380;45.186;9.792;2024-01-10T04:30:57;102295.88;;;2.20;72.78
51297;BME280;37380;45.186;9.792;2024-01-10T04:33:24;102297.91;;;2.09;73.24
51297;BME280;37380;45.186;9.792;2024-01-10T04:35:51;102301.88;;;2.04;73.48
51297;BME280;37380;45.186;9.792;2024-01-10T04:38:18;102299.09;;;2.08;73.99
51297;BME280;37380;45.186;9.792;2024-01-10T04:40:45;102299.53;;;2.02;73.54
51297;BME280;37380;45.186;9.792;2024-01-10T04:43:12;102303.09;;;1.96;74.32
51297;BME280;37380;45.186;9.792;2024-01-10T04:45:39;102310.22;;;1.93;74.33
51297;BME280;37380;45.186;9.792;2024-01-10T04:48:08;102306.69;;;1.93;74.46
51297;BME280;37380;45.186;9.792;2024-01-10T04:50:35;102300.78;;;1.94;74.93
51297;BME280;37380;45.186;9.792;2024-01-10T04:53:03;102299.72;;;2.26;72.64
51297;BME280;37380;45.186;9.792;2024-01-10T04:55:29;102293.72;;;2.38;71.19
51297;BME280;37380;45.186;9.792;2024-01-10T04:57:56;102286.34;;;2.28;71.75
51297;BME280;37380;45.186;9.792;2024-01-10T05:00:25;102284.88;;;2.20;71.79
51297;BME280;37380;45.186;9.792;2024-01-10T05:02:53;102278.59;;;2.16;72.30
51297;BME280;37380;45.186;9.792;2024-01-10T05:05:20;102288.91;;;2.04;73.22
51297;BME280;37380;45.186;9.792;2024-01-10T05:07:51;102292.97;;;1.89;73.79
51297;BME280;37380;45.186;9.792;2024-01-10T05:10:18;102297.78;;;1.78;74.70
51297;BME280;37380;45.186;9.792;2024-01-10T05:12:45;102296.63;;;1.72;75.12
51297;BME280;37380;45.186;9.792;2024-01-10T05:15:12;102304.13;;;1.68;75.77
51297;BME280;37380;45.186;9.792;2024-01-10T05:17:39;102307.28;;;1.67;76.24
51297;BME280;37380;45.186;9.792;2024-01-10T05:20:06;102311.56;;;1.71;75.87
51297;BME280;37380;45.186;9.792;2024-01-10T05:22:35;102322.16;;;1.69;75.58
51297;BME280;37380;45.186;9.792;2024-01-10T05:25:02;102325.31;;;1.64;75.84
51297;BME280;37380;45.186;9.792;2024-01-10T05:27:30;102322.59;;;1.61;75.88
51297;BME280;37380;45.186;9.792;2024-01-10T05:29:58;102321.41;;;1.62;76.22
51297;BME280;37380;45.186;9.792;2024-01-10T05:32:26;102317.50;;;1.59;75.89
51297;BME280;37380;45.186;9.792;2024-01-10T05:34:54;102327.72;;;1.59;75.69
51297;BME280;37380;45.186;9.792;2024-01-10T05:37:21;102320.72;;;1.44;77.18
51297;BME280;37380;45.186;9.792;2024-01-10T05:39:49;102324.63;;;1.46;76.76
51297;BME280;37380;45.186;9.792;2024-01-10T05:42:16;102333.28;;;1.41;77.08
51297;BME280;37380;45.186;9.792;2024-01-10T05:44:43;102326.97;;;1.51;76.62
51297;BME280;37380;45.186;9.792;2024-01-10T05:47:10;102329.38;;;2.00;73.02
51297;BME280;37380;45.186;9.792;2024-01-10T05:49:37;102332.75;;;2.19;71.46
51297;BME280;37380;45.186;9.792;2024-01-10T05:52:04;102330.53;;;2.03;71.61
51297;BME280;37380;45.186;9.792;2024-01-10T05:54:31;102334.94;;;1.93;72.92
51297;BME280;37380;45.186;9.792;2024-01-10T05:56:58;102340.50;;;1.83;73.67
51297;BME280;37380;45.186;9.792;2024-01-10T05:59:28;102342.50;;;1.75;74.57
51297;BME280;37380;45.186;9.792;2024-01-10T06:01:56;102339.75;;;1.79;75.14
51297;BME280;37380;45.186;9.792;2024-01-10T06:04:25;102340.88;;;1.85;74.21
51297;BME280;37380;45.186;9.792;2024-01-10T06:06:52;102334.22;;;1.82;75.37
51297;BME280;37380;45.186;9.792;2024-01-10T06:09:19;102342.06;;;1.84;74.83
51297;BME280;37380;45.186;9.792;2024-01-10T06:11:49;102342.06;;;1.84;75.04
51297;BME280;37380;45.186;9.792;2024-01-10T06:14:16;102346.47;;;1.67;75.41
51297;BME280;37380;45.186;9.792;2024-01-10T06:16:44;102357.13;;;1.58;76.65
51297;BME280;37380;45.186;9.792;2024-01-10T06:19:12;102354.06;;;1.42;76.45
51297;BME280;37380;45.186;9.792;2024-01-10T06:21:39;102356.81;;;1.42;76.57
51297;BME280;37380;45.186;9.792;2024-01-10T06:24:06;102354.50;;;1.41;77.16
51297;BME280;37380;45.186;9.792;2024-01-10T06:26:33;102354.16;;;1.28;77.82
51297;BME280;37380;45.186;9.792;2024-01-10T06:29:00;102359.19;;;1.36;77.72
51297;BME280;37380;45.186;9.792;2024-01-10T06:31:28;102359.19;;;1.36;76.94
51297;BME280;37380;45.186;9.792;2024-01-10T06:33:55;102361.63;;;1.20;77.25
51297;BME280;37380;45.186;9.792;2024-01-10T06:36:22;102366.31;;;1.23;76.81
51297;BME280;37380;45.186;9.792;2024-01-10T06:38:49;102370.63;;;1.24;76.60
51297;BME280;37380;45.186;9.792;2024-01-10T06:41:16;102366.28;;;1.30;77.08
51297;BME280;37380;45.186;9.792;2024-01-10T06:43:43;102363.16;;;1.28;77.08
51297;BME280;37380;45.186;9.792;2024-01-10T06:46:10;102374.53;;;1.30;77.24
51297;BME280;37380;45.186;9.792;2024-01-10T06:48:38;102371.03;;;1.26;77.18
51297;BME280;37380;45.186;9.792;2024-01-10T06:51:15;102380.03;;;1.20;78.41
51297;BME280;37380;45.186;9.792;2024-01-10T06:53:42;102380.41;;;1.22;78.12
51297;BME280;37380;45.186;9.792;2024-01-10T06:56:10;102387.09;;;1.21;78.37
51297;BME280;37380;45.186;9.792;2024-01-10T06:58:38;102387.06;;;1.24;78.50
51297;BME280;37380;45.186;9.792;2024-01-10T07:01:11;102393.38;;;1.18;78.50
51297;BME280;37380;45.186;9.792;2024-01-10T07:03:41;102391.41;;;1.29;78.35
51297;BME280;37380;45.186;9.792;2024-01-10T07:06:08;102390.66;;;1.11;79.28
51297;BME280;37380;45.186;9.792;2024-01-10T07:08:35;102394.97;;;1.12;79.61
51297;BME280;37380;45.186;9.792;2024-01-10T07:11:02;102400.06;;;1.17;79.73
51297;BME280;37380;45.186;9.792;2024-01-10T07:13:29;102397.78;;;0.91;79.60
51297;BME280;37380;45.186;9.792;2024-01-10T07:15:58;102401.31;;;0.84;79.75
51297;BME280;37380;45.186;9.792;2024-01-10T07:18:26;102400.19;;;0.64;81.72
51297;BME280;37380;45.186;9.792;2024-01-10T07:20:53;102408.78;;;0.80;81.63
51297;BME280;37380;45.186;9.792;2024-01-10T07:23:20;102403.25;;;0.98;80.98
51297;BME280;37380;45.186;9.792;2024-01-10T07:25:47;102408.31;;;1.10;80.20
51297;BME280;37380;45.186;9.792;2024-01-10T07:28:14;102413.44;;;0.94;79.74
51297;BME280;37380;45.186;9.792;2024-01-10T07:30:41;102409.53;;;0.91;80.91
51297;BME280;37380;45.186;9.792;2024-01-10T07:33:08;102407.16;;;0.97;80.55
51297;BME280;37380;45.186;9.792;2024-01-10T07:35:36;102407.91;;;1.08;80.44
51297;BME280;37380;45.186;9.792;2024-01-10T07:38:03;102416.81;;;1.36;78.71
51297;BME280;37380;45.186;9.792;2024-01-10T07:40:30;102418.03;;;1.35;77.44
51297;BME280;37380;45.186;9.792;2024-01-10T07:42:58;102410.97;;;1.34;78.41
51297;BME280;37380;45.186;9.792;2024-01-10T07:45:25;102419.59;;;1.33;78.36
51297;BME280;37380;45.186;9.792;2024-01-10T07:47:52;102419.56;;;1.36;78.60
51297;BME280;37380;45.186;9.792;2024-01-10T07:50:19;102418.06;;;1.28;78.65
51297;BME280;37380;45.186;9.792;2024-01-10T07:52:46;102418.75;;;1.50;78.48
51297;BME280;37380;45.186;9.792;2024-01-10T07:55:13;102424.97;;;1.61;77.12
51297;BME280;37380;45.186;9.792;2024-01-10T07:57:40;102429.28;;;1.62;77.12
51297;BME280;37380;45.186;9.792;2024-01-10T08:00:09;102431.25;;;1.58;76.67
51297;BME280;37380;45.186;9.792;2024-01-10T08:02:38;102427.28;;;1.63;76.00
51297;BME280;37380;45.186;9.792;2024-01-10T08:05:06;102430.00;;;1.70;75.26
51297;BME280;37380;45.186;9.792;2024-01-10T08:07:36;102435.84;;;1.86;74.97
51297;BME280;37380;45.186;9.792;2024-01-10T08:10:09;102437.38;;;1.90;75.17
51297;BME280;37380;45.186;9.792;2024-01-10T08:12:37;102440.78;;;2.12;74.37
51297;BME280;37380;45.186;9.792;2024-01-10T08:15:11;102439.47;;;2.31;73.06
51297;BME280;37380;45.186;9.792;2024-01-10T08:17:37;102443.31;;;2.37;71.65
51297;BME280;37380;45.186;9.792;2024-01-10T08:20:08;102444.03;;;2.48;71.40
51297;BME280;37380;45.186;9.792;2024-01-10T08:22:38;102454.97;;;2.55;70.88
51297;BME280;37380;45.186;9.792;2024-01-10T08:25:05;102446.25;;;2.67;70.35
51297;BME280;37380;45.186;9.792;2024-01-10T08:38:12;102454.09;;;3.06;68.38
51297;BME280;37380;45.186;9.792;2024-01-10T08:40:39;102455.78;;;3.33;67.95
51297;BME280;37380;45.186;9.792;2024-01-10T08:43:06;102458.91;;;3.35;68.59
51297;BME280;37380;45.186;9.792;2024-01-10T08:45:33;102457.09;;;3.56;68.10
51297;BME280;37380;45.186;9.792;2024-01-10T08:48:00;102462.44;;;3.70;66.77
51297;BME280;37380;45.186;9.792;2024-01-10T08:50:32;102455.34;;;3.69;66.48
51297;BME280;37380;45.186;9.792;2024-01-10T08:53:00;102463.84;;;3.81;67.10
51297;BME280;37380;45.186;9.792;2024-01-10T08:55:32;102464.50;;;3.92;66.40
51297;BME280;37380;45.186;9.792;2024-01-10T08:57:59;102467.22;;;3.96;66.85
51297;BME280;37380;45.186;9.792;2024-01-10T09:00:26;102465.97;;;4.00;67.07
51297;BME280;37380;45.186;9.792;2024-01-10T09:02:54;102466.34;;;3.99;67.32
51297;BME280;37380;45.186;9.792;2024-01-10T09:05:21;102467.41;;;4.08;67.14
51297;BME280;37380;45.186;9.792;2024-01-10T09:07:49;102480.88;;;4.03;67.21
51297;BME280;37380;45.186;9.792;2024-01-10T09:10:16;102478.06;;;4.06;67.04
51297;BME280;37380;45.186;9.792;2024-01-10T09:12:43;102485.84;;;4.15;67.17
51297;BME280;37380;45.186;9.792;2024-01-10T09:15:13;102482.97;;;4.22;66.81
51297;BME280;37380;45.186;9.792;2024-01-10T09:17:42;102492.53;;;4.41;65.70
51297;BME280;37380;45.186;9.792;2024-01-10T09:20:12;102488.28;;;4.36;65.20
51297;BME280;37380;45.186;9.792;2024-01-10T09:22:40;102490.75;;;4.54;64.12
51297;BME280;37380;45.186;9.792;2024-01-10T09:25:08;102494.69;;;4.30;63.72
51297;BME280;37380;45.186;9.792;2024-01-10T09:27:35;102500.84;;;4.37;63.67
51297;BME280;37380;45.186;9.792;2024-01-10T09:30:03;102495.63;;;4.20;64.61
51297;BME280;37380;45.186;9.792;2024-01-10T09:32:35;102497.81;;;4.32;64.29
51297;BME280;37380;45.186;9.792;2024-01-10T09:35:03;102494.78;;;4.49;64.40
51297;BME280;37380;45.186;9.792;2024-01-10T09:37:32;102497.63;;;4.42;64.23
51297;BME280;37380;45.186;9.792;2024-01-10T09:40:00;102501.59;;;4.41;64.22
51297;BME280;37380;45.186;9.792;2024-01-10T09:42:29;102503.25;;;4.62;62.18
51297;BME280;37380;45.186;9.792;2024-01-10T09:45:00;102499.59;;;4.68;62.53
51297;BME280;37380;45.186;9.792;2024-01-10T09:47:28;102495.16;;;4.98;62.24
51297;BME280;37380;45.186;9.792;2024-01-10T09:49:55;102501.41;;;4.78;61.95
51297;BME280;37380;45.186;9.792;2024-01-10T09:52:27;102501.47;;;4.75;62.71
51297;BME280;37380;45.186;9.792;2024-01-10T09:54:56;102502.38;;;4.92;62.38
51297;BME280;37380;45.186;9.792;2024-01-10T09:57:24;102497.50;;;4.99;62.32
51297;BME280;37380;45.186;9.792;2024-01-10T09:59:53;102496.06;;;4.91;62.38
51297;BME280;37380;45.186;9.792;2024-01-10T10:02:22;102500.84;;;4.64;60.16
51297;BME280;37380;45.186;9.792;2024-01-10T10:05:03;102493.72;;;4.90;61.11
51297;BME280;37380;45.186;9.792;2024-01-10T10:07:31;102501.03;;;4.76;59.77
51297;BME280;37380;45.186;9.792;2024-01-10T10:09:58;102501.34;;;4.82;58.50
51297;BME280;37380;45.186;9.792;2024-01-10T10:12:45;102507.56;;;5.09;58.13
51297;BME280;37380;45.186;9.792;2024-01-10T10:15:17;102506.75;;;4.89;58.27
51297;BME280;37380;45.186;9.792;2024-01-10T10:17:54;102504.72;;;4.93;57.23
51297;BME280;37380;45.186;9.792;2024-01-10T10:20:30;102516.19;;;4.92;57.84
51297;BME280;37380;45.186;9.792;2024-01-10T10:23:07;102507.16;;;4.88;58.91
51297;BME280;37380;45.186;9.792;2024-01-10T10:25:43;102516.34;;;4.81;58.51
51297;BME280;37380;45.186;9.792;2024-01-10T10:28:11;102507.97;;;4.61;59.90
51297;BME280;37380;45.186;9.792;2024-01-10T10:30:55;102499.78;;;4.81;60.26
51297;BME280;37380;45.186;9.792;2024-01-10T10:33:22;102509.22;;;4.84;60.81
51297;BME280;37380;45.186;9.792;2024-01-10T10:35:50;102507.16;;;5.11;59.80
51297;BME280;37380;45.186;9.792;2024-01-10T10:38:22;102496.13;;;4.88;58.99
51297;BME280;37380;45.186;9.792;2024-01-10T10:40:49;102500.75;;;4.94;60.39
51297;BME280;37380;45.186;9.792;2024-01-10T10:43:19;102504.53;;;5.04;59.62
51297;BME280;37380;45.186;9.792;2024-01-10T10:45:50;102502.25;;;4.99;60.07
51297;BME280;37380;45.186;9.792;2024-01-10T10:48:19;102499.84;;;5.01;60.05
51297;BME280;37380;45.186;9.792;2024-01-10T10:51:03;102497.53;;;5.19;57.86
51297;BME280;37380;45.186;9.792;2024-01-10T10:53:39;102495.72;;;5.32;57.01
51297;BME280;37380;45.186;9.792;2024-01-10T10:56:09;102498.22;;;5.46;55.97
51297;BME280;37380;45.186;9.792;2024-01-10T10:58:39;102498.94;;;5.50;54.81
51297;BME280;37380;45.186;9.792;2024-01-10T11:01:08;102502.75;;;5.36;56.60
51297;BME280;37380;45.186;9.792;2024-01-10T11:03:37;102492.84;;;5.39;56.90
51297;BME280;37380;45.186;9.792;2024-01-10T11:06:05;102501.50;;;5.80;56.97
51297;BME280;37380;45.186;9.792;2024-01-10T11:08:36;102500.91;;;6.08;56.46
51297;BME280;37380;45.186;9.792;2024-01-10T11:22:22;102498.38;;;6.50;54.85
51297;BME280;37380;45.186;9.792;2024-01-10T11:24:55;102491.47;;;6.58;54.04
51297;BME280;37380;45.186;9.792;2024-01-10T11:27:26;102490.28;;;6.59;53.86
51297;BME280;37380;45.186;9.792;2024-01-10T11:29:54;102487.97;;;6.38;54.19
51297;BME280;37380;45.186;9.792;2024-01-10T11:32:26;102479.59;;;6.41;53.16
51297;BME280;37380;45.186;9.792;2024-01-10T11:37:21;102474.41;;;6.27;54.09
51297;BME280;37380;45.186;9.792;2024-01-10T11:39:48;102470.84;;;6.27;53.37
51297;BME280;37380;45.186;9.792;2024-01-10T11:42:22;102466.56;;;6.58;52.96
51297;BME280;37380;45.186;9.792;2024-01-10T11:44:51;102459.06;;;7.03;52.14
51297;BME280;37380;45.186;9.792;2024-01-10T11:47:21;102463.69;;;6.77;52.10
51297;BME280;37380;45.186;9.792;2024-01-10T11:49:56;102452.53;;;6.65;51.99
51297;BME280;37380;45.186;9.792;2024-01-10T11:52:32;102451.22;;;7.02;52.01
51297;BME280;37380;45.186;9.792;2024-01-10T11:55:00;102447.84;;;6.94;50.86
51297;BME280;37380;45.186;9.792;2024-01-10T11:57:28;102446.97;;;6.81;51.11
51297;BME280;37380;45.186;9.792;2024-01-10T11:59:59;102443.13;;;6.46;52.02
51297;BME280;37380;45.186;9.792;2024-01-10T12:02:36;102431.69;;;6.28;50.93
51297;BME280;37380;45.186;9.792;2024-01-10T12:05:04;102434.47;;;6.44;54.37
51297;BME280;37380;45.186;9.792;2024-01-10T12:07:31;102430.22;;;6.72;53.15
51297;BME280;37380;45.186;9.792;2024-01-10T12:09:58;102429.50;;;6.84;53.75
51297;BME280;37380;45.186;9.792;2024-01-10T12:12:25;102423.41;;;7.05;54.13
51297;BME280;37380;45.186;9.792;2024-01-10T12:14:53;102420.19;;;6.62;54.65
51297;BME280;37380;45.186;9.792;2024-01-10T12:17:20;102413.34;;;6.66;53.71
51297;BME280;37380;45.186;9.792;2024-01-10T12:19:47;102414.84;;;6.71;52.22
51297;BME280;37380;45.186;9.792;2024-01-10T12:22:18;102419.31;;;6.17;54.38
51297;BME280;37380;45.186;9.792;2024-01-10T12:24:49;102407.66;;;6.41;54.57
51297;BME280;37380;45.186;9.792;2024-01-10T12:27:19;102412.59;;;6.66;53.26
51297;BME280;37380;45.186;9.792;2024-01-10T12:29:52;102415.69;;;6.68;52.81
51297;BME280;37380;45.186;9.792;2024-01-10T12:32:21;102412.00;;;6.58;54.09
51297;BME280;37380;45.186;9.792;2024-01-10T12:35:01;102409.13;;;6.46;54.50
51297;BME280;37380;45.186;9.792;2024-01-10T12:37:28;102402.38;;;6.63;53.02
51297;BME280;37380;45.186;9.792;2024-01-10T12:39:56;102404.97;;;6.70;53.40
51297;BME280;37380;45.186;9.792;2024-01-10T12:42:24;102398.25;;;6.39;52.33
51297;BME280;37380;45.186;9.792;2024-01-10T12:44:51;102406.00;;;5.95;53.56
51297;BME280;37380;45.186;9.792;2024-01-10T12:47:19;102391.84;;;6.09;52.90
51297;BME280;37380;45.186;9.792;2024-01-10T12:49:47;102403.50;;;6.01;54.60
51297;BME280;37380;45.186;9.792;2024-01-10T12:52:14;102399.72;;;6.11;52.88
51297;BME280;37380;45.186;9.792;2024-01-10T12:54:46;102391.66;;;6.00;53.28
51297;BME280;37380;45.186;9.792;2024-01-10T12:57:16;102397.56;;;5.83;52.50
51297;BME280;37380;45.186;9.792;2024-01-10T12:59:43;102397.53;;;6.02;53.67
51297;BME280;37380;45.186;9.792;2024-01-10T13:02:10;102386.47;;;6.02;53.55
51297;BME280;37380;45.186;9.792;2024-01-10T13:04:37;102386.50;;;5.83;54.04
51297;BME280;37380;45.186;9.792;2024-01-10T13:07:04;102390.81;;;6.03;54.49
51297;BME280;37380;45.186;9.792;2024-01-10T13:09:31;102375.59;;;6.11;53.48
51297;BME280;37380;45.186;9.792;2024-01-10T13:12:01;102377.81;;;5.84;53.02
51297;BME280;37380;45.186;9.792;2024-01-10T13:14:28;102374.97;;;5.88;53.82
51297;BME280;37380;45.186;9.792;2024-01-10T13:16:58;102373.31;;;5.90;55.25
51297;BME280;37380;45.186;9.792;2024-01-10T13:19:26;102376.13;;;6.06;55.52
51297;BME280;37380;45.186;9.792;2024-01-10T13:21:53;102370.59;;;6.23;53.50
51297;BME280;37380;45.186;9.792;2024-01-10T13:24:21;102364.03;;;6.33;54.74
51297;BME280;37380;45.186;9.792;2024-01-10T13:26:48;102367.47;;;6.37;53.80
51297;BME280;37380;45.186;9.792;2024-01-10T13:29:15;102367.28;;;6.44;53.69